sensor_id;sensor_type;location;lat;lon;timestamp;pressure;altitude;pressure_sealevel;temperature;humidity
56052;BME280;41919;42.648;23.384;2023-06-14T00:00:04;94289.28;;;18.16;100.00
56052;BME280;41919;42.648;23.384;2023-06-14T00:02:31;94291.13;;;18.15;100.00
56052;BME280;41919;42.648;23.384;2023-06-14T00:04:56;94298.28;;;18.15;100.00
56052;BME280;41919;42.648;23.384;2023-06-14T00:07:36;94271.25;;;18.02;100.00
56052;BME280;41919;42.648;23.384;2023-06-14T00:10:03;94270.44;;;18.02;100.00
56052;BME280;41919;42.648;23.384;2023-06-14T00:12:29;94283.22;;;18.20;100.00
56052;BME280;41919;42.648;23.384;2023-06-14T00:14:54;94219.81;;;17.83;100.00
56052;BME280;41919;42.648;23.384;2023-06-14T00:17:20;94264.97;;;18.19;100.00
56052;BME280;41919;42.648;23.384;2023-06-14T00:19:46;94217.94;;;17.78;100.00
56052;BME280;41919;42.648;23.384;2023-06-14T00:22:11;94281.59;;;18.09;100.00
56052;BME280;41919;42.648;23.384;2023-06-14T00:24:37;94179.19;;;17.41;100.00
56052;BME280;41919;42.648;23.384;2023-06-14T00:27:02;94235.09;;;17.71;100.00
56052;BME280;41919;42.648;23.384;2023-06-14T00:29:28;94254.28;;;17.98;100.00
56052;BME280;41919;42.648;23.384;2023-06-14T00:31:53;94224.03;;;17.79;100.00
56052;BME280;41919;42.648;23.384;2023-06-14T00:34:19;94256.97;;;18.03;100.00
56052;BME280;41919;42.648;23.384;2023-06-14T00:36:44;94267.53;;;18.03;100.00
56052;BME280;41919;42.648;23.384;2023-06-14T00:39:09;94258.50;;;17.94;100.00
56052;BME280;41919;42.648;23.384;2023-06-14T00:41:35;94271.25;;;18.02;100.00
56052;BME280;41919;42.648;23.384;2023-06-14T00:44:00;94243.78;;;17.66;100.00
56052;BME280;41919;42.648;23.384;2023-06-14T00:46:26;94253.94;;;17.42;100.00
56052;BME280;41919;42.648;23.384;2023-06-14T00:48:51;94255.69;;;17.31;100.00
56052;BME280;41919;42.648;23.384;2023-06-14T00:51:17;94275.41;;;17.18;100.00
56052;BME280;41919;42.648;23.384;2023-06-14T00:53:44;94264.84;;;16.91;100.00
56052;BME280;41919;42.648;23.384;2023-06-14T00:56:12;94264.53;;;16.82;100.00
56052;BME280;41919;42.648;23.384;2023-06-14T00:58:39;94264.81;;;16.64;100.00
56052;BME280;41919;42.648;23.384;2023-06-14T01:01:04;94253.19;;;16.60;100.00
56052;BME280;41919;42.648;23.384;2023-06-14T01:03:30;94220.22;;;16.35;100.00
56052;BME280;41919;42.648;23.384;2023-06-14T01:06:08;94260.47;;;16.53;100.00
56052;BME280;41919;42.648;23.384;2023-06-14T01:08:47;94264.78;;;16.59;100.00
56052;BME280;41919;42.648;23.384;2023-06-14T01:11:29;94255.63;;;16.66;100.00
56052;BME280;41919;42.648;23.384;2023-06-14T01:13:59;94246.19;;;16.71;100.00
56052;BME280;41919;42.648;23.384;2023-06-14T01:16:28;94257.56;;;16.76;100.00
56052;BME280;41919;42.648;23.384;2023-06-14T01:18:54;94255.25;;;16.80;100.00
56052;BME280;41919;42.648;23.384;2023-06-14T01:21:25;94228.94;;;16.63;100.00
56052;BME280;41919;42.648;23.384;2023-06-14T01:23:51;94265.44;;;16.71;100.00
56052;BME280;41919;42.648;23.384;2023-06-14T01:26:21;94270.84;;;16.59;100.00
56052;BME280;41919;42.648;23.384;2023-06-14T01:28:48;94258.28;;;16.44;100.00
56052;BME280;41919;42.648;23.384;2023-06-14T01:31:19;94206.22;;;16.07;100.00
56052;BME280;41919;42.648;23.384;2023-06-14T01:33:48;94267.25;;;16.43;100.00
56052;BME280;41919;42.648;23.384;2023-06-14T01:36:15;94198.53;;;16.06;100.00
56052;BME280;41919;42.648;23.384;2023-06-14T01:38:42;94266.69;;;16.63;100.00
56052;BME280;41919;42.648;23.384;2023-06-14T01:41:09;94199.66;;;16.37;100.00
56052;BME280;41919;42.648;23.384;2023-06-14T01:43:35;94256.91;;;16.86;100.00
56052;BME280;41919;42.648;23.384;2023-06-14T01:46:02;94204.66;;;16.61;100.00
56052;BME280;41919;42.648;23.384;2023-06-14T01:48:28;94254.19;;;16.81;100.00
56052;BME280;41919;42.648;23.384;2023-06-14T01:50:53;94251.78;;;16.79;100.00
56052;BME280;41919;42.648;23.384;2023-06-14T01:53:19;94257.31;;;16.78;100.00
56052;BME280;41919;42.648;23.384;2023-06-14T01:55:45;94253.72;;;16.62;100.00
56052;BME280;41919;42.648;23.384;2023-06-14T01:58:13;94253.13;;;16.55;100.00
56052;BME280;41919;42.648;23.384;2023-06-14T02:00:41;94250.63;;;16.70;100.00
56052;BME280;41919;42.648;23.384;2023-06-14T02:03:08;94253.63;;;16.79;100.00
56052;BME280;41919;42.648;23.384;2023-06-14T02:05:34;94268.09;;;16.98;100.00
56052;BME280;41919;42.648;23.384;2023-06-14T02:08:00;94252.50;;;16.97;100.00
56052;BME280;41919;42.648;23.384;2023-06-14T02:10:25;94245.69;;;17.01;100.00
56052;BME280;41919;42.648;23.384;2023-06-14T02:12:51;94202.66;;;16.73;100.00
56052;BME280;41919;42.648;23.384;2023-06-14T02:15:16;94195.16;;;16.87;100.00
56052;BME280;41919;42.648;23.384;2023-06-14T02:17:44;94276.63;;;17.38;100.00
56052;BME280;41919;42.648;23.384;2023-06-14T02:20:10;94267.63;;;17.39;100.00
56052;BME280;41919;42.648;23.384;2023-06-14T02:22:35;94276.72;;;17.53;100.00
56052;BME280;41919;42.648;23.384;2023-06-14T02:25:01;94274.09;;;17.53;100.00
56052;BME280;41919;42.648;23.384;2023-06-14T02:27:26;94268.81;;;17.53;100.00
56052;BME280;41919;42.648;23.384;2023-06-14T02:29:52;94265.09;;;17.54;100.00
56052;BME280;41919;42.648;23.384;2023-06-14T02:32:17;94230.09;;;17.37;100.00
56052;BME280;41919;42.648;23.384;2023-06-14T02:34:42;94281.38;;;17.78;100.00
56052;BME280;41919;42.648;23.384;2023-06-14T02:37:08;94272.63;;;17.73;100.00
56052;BME280;41919;42.648;23.384;2023-06-14T02:39:34;94277.50;;;17.86;100.00
56052;BME280;41919;42.648;23.384;2023-06-14T02:41:59;94289.66;;;17.87;100.00
56052;BME280;41919;42.648;23.384;2023-06-14T02:44:26;94284.94;;;17.89;100.00
56052;BME280;41919;42.648;23.384;2023-06-14T02:46:55;94260.72;;;17.75;100.00
56052;BME280;41919;42.648;23.384;2023-06-14T02:49:21;94264.72;;;17.78;100.00
56052;BME280;41919;42.648;23.384;2023-06-14T02:51:47;94279.78;;;17.77;100.00
56052;BME280;41919;42.648;23.384;2023-06-14T02:54:12;94282.16;;;17.74;100.00
56052;BME280;41919;42.648;23.384;2023-06-14T02:56:37;94236.03;;;17.49;100.00
56052;BME280;41919;42.648;23.384;2023-06-14T02:59:03;94282.78;;;17.86;100.00
56052;BME280;41919;42.648;23.384;2023-06-14T03:01:29;94274.78;;;17.81;100.00
56052;BME280;41919;42.648;23.384;2023-06-14T03:04:02;94249.28;;;17.59;100.00
56052;BME280;41919;42.648;23.384;2023-06-14T03:06:30;94274.78;;;17.76;100.00
56052;BME280;41919;42.648;23.384;2023-06-14T03:08:57;94244.47;;;17.51;100.00
56052;BME280;41919;42.648;23.384;2023-06-14T03:11:25;94294.94;;;17.87;100.00
56052;BME280;41919;42.648;23.384;2023-06-14T03:13:51;94299.22;;;17.93;100.00
56052;BME280;41919;42.648;23.384;2023-06-14T03:16:17;94300.78;;;17.94;100.00
56052;BME280;41919;42.648;23.384;2023-06-14T03:18:47;94290.16;;;17.84;100.00
56052;BME280;41919;42.648;23.384;2023-06-14T03:21:12;94285.97;;;17.88;100.00
56052;BME280;41919;42.648;23.384;2023-06-14T03:23:38;94211.31;;;17.28;100.00
56052;BME280;41919;42.648;23.384;2023-06-14T03:26:03;94299.75;;;18.00;100.00
56052;BME280;41919;42.648;23.384;2023-06-14T03:28:29;94293.44;;;18.01;100.00
56052;BME280;41919;42.648;23.384;2023-06-14T03:30:54;94301.41;;;18.12;100.00
56052;BME280;41919;42.648;23.384;2023-06-14T03:33:19;94245.69;;;17.76;100.00
56052;BME280;41919;42.648;23.384;2023-06-14T03:35:46;94287.66;;;18.10;100.00
56052;BME280;41919;42.648;23.384;2023-06-14T03:38:11;94284.22;;;18.09;100.00
56052;BME280;41919;42.648;23.384;2023-06-14T03:40:37;94298.84;;;18.22;100.00
56052;BME280;41919;42.648;23.384;2023-06-14T03:43:02;94311.56;;;18.30;100.00
56052;BME280;41919;42.648;23.384;2023-06-14T03:45:27;94237.84;;;17.86;100.00
56052;BME280;41919;42.648;23.384;2023-06-14T03:47:53;94286.91;;;18.19;100.00
56052;BME280;41919;42.648;23.384;2023-06-14T03:50:19;94302.59;;;18.36;100.00
56052;BME280;41919;42.648;23.384;2023-06-14T03:52:45;94248.22;;;17.98;100.00
56052;BME280;41919;42.648;23.384;2023-06-14T03:55:11;94235.31;;;18.07;100.00
56052;BME280;41919;42.648;23.384;2023-06-14T03:57:38;94305.88;;;18.59;100.00
56052;BME280;41919;42.648;23.384;2023-06-14T04:00:05;94172.22;;;17.78;100.00
56052;BME280;41919;42.648;23.384;2023-06-14T04:02:31;94317.34;;;18.80;100.00
56052;BME280;41919;42.648;23.384;2023-06-14T04:04:56;94318.16;;;18.96;100.00
56052;BME280;41919;42.648;23.384;2023-06-14T04:07:21;94322.69;;;19.00;100.00
56052;BME280;41919;42.648;23.384;2023-06-14T04:09:48;94271.25;;;18.81;100.00
56052;BME280;41919;42.648;23.384;2023-06-14T04:12:13;94315.78;;;18.99;100.00
56052;BME280;41919;42.648;23.384;2023-06-14T04:14:40;94319.81;;;19.12;100.00
56052;BME280;41919;42.648;23.384;2023-06-14T04:17:06;94253.47;;;18.71;100.00
56052;BME280;41919;42.648;23.384;2023-06-14T04:19:31;94314.22;;;19.19;100.00
56052;BME280;41919;42.648;23.384;2023-06-14T04:21:58;94327.22;;;19.31;100.00
56052;BME280;41919;42.648;23.384;2023-06-14T04:24:24;94309.22;;;19.33;100.00
56052;BME280;41919;42.648;23.384;2023-06-14T04:26:50;94242.44;;;19.00;100.00
56052;BME280;41919;42.648;23.384;2023-06-14T04:29:17;94323.53;;;19.42;100.00
56052;BME280;41919;42.648;23.384;2023-06-14T04:31:45;94322.47;;;19.38;100.00
56052;BME280;41919;42.648;23.384;2023-06-14T04:34:11;94308.97;;;19.39;100.00
56052;BME280;41919;42.648;23.384;2023-06-14T04:36:42;94323.53;;;19.63;100.00
56052;BME280;41919;42.648;23.384;2023-06-14T04:39:16;94301.00;;;19.65;100.00
56052;BME280;41919;42.648;23.384;2023-06-14T04:41:45;94283.50;;;19.64;100.00
56052;BME280;41919;42.648;23.384;2023-06-14T04:44:12;94294.66;;;19.82;100.00
56052;BME280;41919;42.648;23.384;2023-06-14T04:46:38;94313.41;;;20.06;100.00
56052;BME280;41919;42.648;23.384;2023-06-14T04:49:15;94302.28;;;20.14;100.00
56052;BME280;41919;42.648;23.384;2023-06-14T06:24:05;94385.81;;;21.97;100.00
56052;BME280;41919;42.648;23.384;2023-06-14T06:26:31;94383.06;;;22.07;100.00
56052;BME280;41919;42.648;23.384;2023-06-14T06:28:57;94332.41;;;21.88;100.00
56052;BME280;41919;42.648;23.384;2023-06-14T06:31:22;94382.81;;;22.38;100.00
56052;BME280;41919;42.648;23.384;2023-06-14T06:33:48;94388.28;;;22.51;100.00
56052;BME280;41919;42.648;23.384;2023-06-14T06:36:13;94359.81;;;22.47;100.00
56052;BME280;41919;42.648;23.384;2023-06-14T06:38:38;94382.78;;;22.67;100.00
56052;BME280;41919;42.648;23.384;2023-06-14T06:41:04;94400.16;;;22.83;100.00
56052;BME280;41919;42.648;23.384;2023-06-14T06:43:29;94388.34;;;22.70;100.00
56052;BME280;41919;42.648;23.384;2023-06-14T06:45:55;94384.44;;;22.82;100.00
56052;BME280;41919;42.648;23.384;2023-06-14T06:48:20;94382.38;;;22.79;100.00
56052;BME280;41919;42.648;23.384;2023-06-14T06:50:45;94395.63;;;22.84;100.00
56052;BME280;41919;42.648;23.384;2023-06-14T06:53:11;94369.22;;;22.63;100.00
56052;BME280;41919;42.648;23.384;2023-06-14T06:55:36;94399.28;;;22.69;100.00
56052;BME280;41919;42.648;23.384;2023-06-14T06:58:01;94398.88;;;22.81;100.00
56052;BME280;41919;42.648;23.384;2023-06-14T07:00:29;94350.53;;;22.44;100.00
56052;BME280;41919;42.648;23.384;2023-06-14T07:02:55;94360.94;;;22.41;100.00
56052;BME280;41919;42.648;23.384;2023-06-14T07:05:22;94393.84;;;22.55;100.00
56052;BME280;41919;42.648;23.384;2023-06-14T07:07:47;94391.56;;;22.67;100.00
56052;BME280;41919;42.648;23.384;2023-06-14T07:10:13;94391.09;;;22.84;100.00
56052;BME280;41919;42.648;23.384;2023-06-14T07:12:38;94285.63;;;22.40;100.00
56052;BME280;41919;42.648;23.384;2023-06-14T07:15:06;94386.72;;;23.18;100.00
56052;BME280;41919;42.648;23.384;2023-06-14T07:17:32;94393.34;;;23.39;100.00
56052;BME280;41919;42.648;23.384;2023-06-14T07:19:59;94385.63;;;23.57;100.00
56052;BME280;41919;42.648;23.384;2023-06-14T07:22:26;94386.03;;;24.02;80.53
56052;BME280;41919;42.648;23.384;2023-06-14T07:24:51;94391.13;;;24.78;77.58
56052;BME280;41919;42.648;23.384;2023-06-14T07:27:17;94336.09;;;24.77;74.79
56052;BME280;41919;42.648;23.384;2023-06-14T07:29:42;94379.94;;;25.54;71.28
56052;BME280;41919;42.648;23.384;2023-06-14T07:32:08;94333.31;;;25.46;70.54
56052;BME280;41919;42.648;23.384;2023-06-14T07:34:33;94339.66;;;25.95;70.94
56052;BME280;41919;42.648;23.384;2023-06-14T07:36:58;94383.28;;;26.81;67.12
56052;BME280;41919;42.648;23.384;2023-06-14T07:39:24;94379.44;;;27.22;65.12
56052;BME280;41919;42.648;23.384;2023-06-14T07:41:49;94349.47;;;26.31;67.12
56052;BME280;41919;42.648;23.384;2023-06-14T07:44:15;94373.50;;;26.54;64.96
56052;BME280;41919;42.648;23.384;2023-06-14T07:46:41;94253.97;;;25.64;65.71
56052;BME280;41919;42.648;23.384;2023-06-14T07:49:06;94386.69;;;26.64;64.82
56052;BME280;41919;42.648;23.384;2023-06-14T07:51:32;94379.22;;;25.39;68.03
56052;BME280;41919;42.648;23.384;2023-06-14T07:53:59;94386.50;;;25.48;69.71
56052;BME280;41919;42.648;23.384;2023-06-14T07:56:26;94403.38;;;25.71;69.25
56052;BME280;41919;42.648;23.384;2023-06-14T07:58:51;94406.44;;;25.78;67.07
56052;BME280;41919;42.648;23.384;2023-06-14T08:01:17;94393.59;;;25.89;67.60
56052;BME280;41919;42.648;23.384;2023-06-14T08:03:43;94407.97;;;26.15;67.81
56052;BME280;41919;42.648;23.384;2023-06-14T08:06:08;94406.78;;;25.99;66.64
56052;BME280;41919;42.648;23.384;2023-06-14T08:08:33;94403.47;;;26.02;67.65
56052;BME280;41919;42.648;23.384;2023-06-14T08:10:59;94407.31;;;26.10;66.38
56052;BME280;41919;42.648;23.384;2023-06-14T08:13:24;94415.69;;;26.39;65.61
56052;BME280;41919;42.648;23.384;2023-06-14T08:15:50;94414.53;;;26.54;63.92
56052;BME280;41919;42.648;23.384;2023-06-14T08:18:16;94416.38;;;26.23;65.88
56052;BME280;41919;42.648;23.384;2023-06-14T08:20:41;94415.19;;;26.06;66.08
56052;BME280;41919;42.648;23.384;2023-06-14T08:23:07;94422.84;;;25.99;66.15
56052;BME280;41919;42.648;23.384;2023-06-14T08:25:34;94419.88;;;25.87;66.86
56052;BME280;41919;42.648;23.384;2023-06-14T08:28:00;94424.06;;;25.93;66.93
56052;BME280;41919;42.648;23.384;2023-06-14T08:30:26;94372.31;;;25.83;67.22
56052;BME280;41919;42.648;23.384;2023-06-14T08:32:51;94419.31;;;26.35;64.92
56052;BME280;41919;42.648;23.384;2023-06-14T08:35:17;94427.00;;;26.36;64.72
56052;BME280;41919;42.648;23.384;2023-06-14T08:37:43;94407.53;;;26.45;63.84
56052;BME280;41919;42.648;23.384;2023-06-14T08:40:19;94420.78;;;26.50;64.46
56052;BME280;41919;42.648;23.384;2023-06-14T08:42:48;94432.25;;;26.64;63.77
56052;BME280;41919;42.648;23.384;2023-06-14T08:45:15;94356.94;;;26.43;62.36
56052;BME280;41919;42.648;23.384;2023-06-14T08:47:41;94425.94;;;27.09;61.40
56052;BME280;41919;42.648;23.384;2023-06-14T08:50:07;94408.00;;;27.18;61.30
56052;BME280;41919;42.648;23.384;2023-06-14T08:52:37;94405.41;;;27.44;61.34
56052;BME280;41919;42.648;23.384;2023-06-14T08:55:06;94401.75;;;27.66;58.82
56052;BME280;41919;42.648;23.384;2023-06-14T08:57:35;94397.00;;;27.63;59.32
56052;BME280;41919;42.648;23.384;2023-06-14T09:00:03;94409.31;;;26.89;62.53
56052;BME280;41919;42.648;23.384;2023-06-14T09:02:37;94398.38;;;26.77;62.03
56052;BME280;41919;42.648;23.384;2023-06-14T09:05:02;94409.88;;;26.69;62.28
56052;BME280;41919;42.648;23.384;2023-06-14T09:07:28;94396.63;;;27.12;59.40
56052;BME280;41919;42.648;23.384;2023-06-14T09:10:14;94381.75;;;26.97;60.37
56052;BME280;41919;42.648;23.384;2023-06-14T09:12:40;94387.63;;;27.17;58.36
56052;BME280;41919;42.648;23.384;2023-06-14T09:15:06;94394.81;;;27.56;57.99
56052;BME280;41919;42.648;23.384;2023-06-14T09:17:36;94389.59;;;27.69;57.03
56052;BME280;41919;42.648;23.384;2023-06-14T09:20:05;94345.56;;;27.52;56.09
56052;BME280;41919;42.648;23.384;2023-06-14T09:22:32;94352.97;;;27.73;54.73
56052;BME280;41919;42.648;23.384;2023-06-14T09:24:58;94392.31;;;27.95;56.02
56052;BME280;41919;42.648;23.384;2023-06-14T09:27:28;94386.44;;;27.75;55.20
56052;BME280;41919;42.648;23.384;2023-06-14T09:29:54;94404.34;;;27.14;58.67
56052;BME280;41919;42.648;23.384;2023-06-14T09:32:21;94399.13;;;26.06;61.60
56052;BME280;41919;42.648;23.384;2023-06-14T09:34:47;94345.31;;;25.49;63.25
56052;BME280;41919;42.648;23.384;2023-06-14T09:37:12;94327.53;;;25.75;62.65
56052;BME280;41919;42.648;23.384;2023-06-14T09:39:50;94389.41;;;26.19;62.77
56052;BME280;41919;42.648;23.384;2023-06-14T09:42:16;94386.41;;;26.43;62.36
56052;BME280;41919;42.648;23.384;2023-06-14T09:44:48;94347.47;;;26.46;60.48
56052;BME280;41919;42.648;23.384;2023-06-14T09:47:15;94380.22;;;27.14;60.16
56052;BME280;41919;42.648;23.384;2023-06-14T09:49:42;94382.25;;;27.08;59.07
56052;BME280;41919;42.648;23.384;2023-06-14T09:52:10;94378.63;;;27.04;59.04
56052;BME280;41919;42.648;23.384;2023-06-14T09:54:41;94352.13;;;27.20;59.26
56052;BME280;41919;42.648;23.384;2023-06-14T09:57:10;94370.25;;;27.06;60.98
56052;BME280;41919;42.648;23.384;2023-06-14T09:59:41;94355.25;;;27.05;58.78
56052;BME280;41919;42.648;23.384;2023-06-14T10:02:13;94292.81;;;26.55;60.06
56052;BME280;41919;42.648;23.384;2023-06-14T10:04:45;94353.47;;;26.83;60.57
56052;BME280;41919;42.648;23.384;2023-06-14T10:07:14;94346.53;;;26.82;59.51
56052;BME280;41919;42.648;23.384;2023-06-14T10:09:41;94348.91;;;26.83;59.09
56052;BME280;41919;42.648;23.384;2023-06-14T10:12:09;94362.44;;;26.78;59.82
56052;BME280;41919;42.648;23.384;2023-06-14T10:14:36;94336.75;;;26.46;60.33
56052;BME280;41919;42.648;23.384;2023-06-14T10:17:13;94344.63;;;26.42;60.45
56052;BME280;41919;42.648;23.384;2023-06-14T10:19:54;94353.72;;;26.01;61.47
56052;BME280;41919;42.648;23.384;2023-06-14T10:22:35;94340.75;;;25.94;62.16
56052;BME280;41919;42.648;23.384;2023-06-14T10:25:06;94324.09;;;25.97;62.48
56052;BME280;41919;42.648;23.384;2023-06-14T10:27:37;94355.72;;;26.18;62.04
56052;BME280;41919;42.648;23.384;2023-06-14T10:30:04;94357.81;;;26.30;60.39
56052;BME280;41919;42.648;23.384;2023-06-14T10:32:32;94317.06;;;26.10;60.12
56052;BME280;41919;42.648;23.384;2023-06-14T10:34:59;94341.09;;;26.24;60.37
56052;BME280;41919;42.648;23.384;2023-06-14T10:37:25;94353.25;;;26.30;62.64
56052;BME280;41919;42.648;23.384;2023-06-14T10:39:51;94318.69;;;26.20;60.58
56052;BME280;41919;42.648;23.384;2023-06-14T10:42:18;94346.56;;;26.50;59.79
56052;BME280;41919;42.648;23.384;2023-06-14T10:45:11;94349.44;;;25.77;62.57
56052;BME280;41919;42.648;23.384;2023-06-14T10:47:38;94356.41;;;25.42;64.38
56052;BME280;41919;42.648;23.384;2023-06-14T10:50:09;94340.22;;;25.11;67.46
56052;BME280;41919;42.648;23.384;2023-06-14T10:52:39;94333.41;;;25.04;66.45
56052;BME280;41919;42.648;23.384;2023-06-14T10:55:13;94339.34;;;25.01;65.63
56052;BME280;41919;42.648;23.384;2023-06-14T10:57:46;94332.72;;;24.99;65.91
56052;BME280;41919;42.648;23.384;2023-06-14T11:00:14;94303.22;;;24.90;69.59
56052;BME280;41919;42.648;23.384;2023-06-14T11:05:53;94318.09;;;24.69;67.80
56052;BME280;41919;42.648;23.384;2023-06-14T11:11:07;94312.69;;;24.96;65.10
56052;BME280;41919;42.648;23.384;2023-06-14T11:13:32;94307.50;;;25.14;63.53
56052;BME280;41919;42.648;23.384;2023-06-14T11:15:59;94300.09;;;25.24;62.34
56052;BME280;41919;42.648;23.384;2023-06-14T11:18:25;94317.69;;;25.62;61.87
56052;BME280;41919;42.648;23.384;2023-06-14T11:20:52;94299.75;;;25.62;61.05
56052;BME280;41919;42.648;23.384;2023-06-14T11:23:18;94305.78;;;25.68;62.58
56052;BME280;41919;42.648;23.384;2023-06-14T11:25:43;94250.88;;;25.12;64.52
56052;BME280;41919;42.648;23.384;2023-06-14T11:28:08;94254.94;;;25.23;63.31
56052;BME280;41919;42.648;23.384;2023-06-14T11:30:34;94300.44;;;25.68;65.58
56052;BME280;41919;42.648;23.384;2023-06-14T11:32:59;94245.47;;;25.39;63.71
56052;BME280;41919;42.648;23.384;2023-06-14T11:35:26;94302.53;;;25.57;63.43
56052;BME280;41919;42.648;23.384;2023-06-14T11:37:55;94286.03;;;25.19;64.66
56052;BME280;41919;42.648;23.384;2023-06-14T11:40:26;94270.75;;;24.83;62.88
56052;BME280;41919;42.648;23.384;2023-06-14T11:42:59;94302.00;;;25.24;63.68
56052;BME280;41919;42.648;23.384;2023-06-14T11:45:25;94244.75;;;24.75;65.46
56052;BME280;41919;42.648;23.384;2023-06-14T11:47:51;94297.06;;;25.03;67.62
56052;BME280;41919;42.648;23.384;2023-06-14T11:50:19;94271.25;;;24.99;67.31
56052;BME280;41919;42.648;23.384;2023-06-14T11:52:44;94215.41;;;24.47;64.99
56052;BME280;41919;42.648;23.384;2023-06-14T11:55:10;94231.44;;;24.47;65.92
56052;BME280;41919;42.648;23.384;2023-06-14T11:57:36;94265.41;;;24.83;66.16
56052;BME280;41919;42.648;23.384;2023-06-14T12:00:06;94274.50;;;25.32;63.37
56052;BME280;41919;42.648;23.384;2023-06-14T12:02:38;94261.94;;;25.19;68.81
56052;BME280;41919;42.648;23.384;2023-06-14T12:05:06;94266.31;;;25.15;65.25
56052;BME280;41919;42.648;23.384;2023-06-14T12:07:37;94248.91;;;25.40;63.62
56052;BME280;41919;42.648;23.384;2023-06-14T12:10:06;94257.91;;;25.67;64.49
56052;BME280;41919;42.648;23.384;2023-06-14T12:12:37;94238.41;;;25.66;62.14
56052;BME280;41919;42.648;23.384;2023-06-14T12:15:05;94250.16;;;25.88;61.00
56052;BME280;41919;42.648;23.384;2023-06-14T12:17:32;94203.53;;;25.26;62.21
56052;BME280;41919;42.648;23.384;2023-06-14T12:19:58;94248.84;;;25.31;63.09
56052;BME280;41919;42.648;23.384;2023-06-14T12:22:23;94255.41;;;25.25;64.26
56052;BME280;41919;42.648;23.384;2023-06-14T12:24:49;94218.69;;;25.17;64.40
56052;BME280;41919;42.648;23.384;2023-06-14T12:27:15;94242.78;;;25.39;65.47
56052;BME280;41919;42.648;23.384;2023-06-14T12:29:44;94240.03;;;24.94;63.95
56052;BME280;41919;42.648;23.384;2023-06-14T12:32:09;94232.16;;;24.89;66.12
56052;BME280;41919;42.648;23.384;2023-06-14T12:34:35;94241.09;;;24.71;68.24
56052;BME280;41919;42.648;23.384;2023-06-14T12:37:01;94238.75;;;24.55;69.57
56052;BME280;41919;42.648;23.384;2023-06-14T12:39:28;94251.91;;;24.52;68.30
56052;BME280;41919;42.648;23.384;2023-06-14T12:41:55;94235.19;;;24.46;69.12
56052;BME280;41919;42.648;23.384;2023-06-14T12:44:20;94192.19;;;24.06;70.56
56052;BME280;41919;42.648;23.384;2023-06-14T12:46:45;94229.25;;;24.49;68.91
56052;BME280;41919;42.648;23.384;2023-06-14T12:49:12;94199.78;;;24.26;65.96
56052;BME280;41919;42.648;23.384;2023-06-14T12:51:40;94225.91;;;24.57;65.95
56052;BME280;41919;42.648;23.384;2023-06-14T12:54:06;94227.09;;;24.51;65.32
56052;BME280;41919;42.648;23.384;2023-06-14T12:56:31;94186.13;;;24.14;64.93
56052;BME280;41919;42.648;23.384;2023-06-14T12:58:58;94219.16;;;24.46;63.83
56052;BME280;41919;42.648;23.384;2023-06-14T13:01:24;94167.81;;;23.38;75.52
56052;BME280;41919;42.648;23.384;2023-06-14T13:03:49;94234.13;;;22.88;81.59
56052;BME280;41919;42.648;23.384;2023-06-14T13:06:17;94226.41;;;22.24;86.20
56052;BME280;41919;42.648;23.384;2023-06-14T13:08:42;94246.22;;;21.89;92.71
56052;BME280;41919;42.648;23.384;2023-06-14T13:11:08;94236.03;;;21.38;99.38
56052;BME280;41919;42.648;23.384;2023-06-14T13:13:33;94203.75;;;20.86;100.00
56052;BME280;41919;42.648;23.384;2023-06-14T13:15:59;94239.63;;;20.83;100.00
56052;BME280;41919;42.648;23.384;2023-06-14T13:18:24;94220.97;;;20.44;100.00
56052;BME280;41919;42.648;23.384;2023-06-14T13:20:50;94242.19;;;20.49;100.00
56052;BME280;41919;42.648;23.384;2023-06-14T13:23:16;94262.06;;;20.51;100.00
56052;BME280;41919;42.648;23.384;2023-06-14T13:25:41;94269.63;;;20.29;100.00
56052;BME280;41919;42.648;23.384;2023-06-14T13:28:07;94280.19;;;20.34;99.25
56052;BME280;41919;42.648;23.384;2023-06-14T13:30:33;94273.59;;;20.21;98.68
56052;BME280;41919;42.648;23.384;2023-06-14T13:32:58;94285.75;;;20.32;100.00
56052;BME280;41919;42.648;23.384;2023-06-14T13:35:24;94182.53;;;19.66;100.00
56052;BME280;41919;42.648;23.384;2023-06-14T13:37:50;94271.50;;;20.18;100.00
56052;BME280;41919;42.648;23.384;2023-06-14T13:40:16;94228.09;;;19.83;100.00
56052;BME280;41919;42.648;23.384;2023-06-14T13:42:42;94269.19;;;19.86;100.00
56052;BME280;41919;42.648;23.384;2023-06-14T13:45:08;94225.50;;;19.27;100.00
56052;BME280;41919;42.648;23.384;2023-06-14T13:47:34;94236.09;;;19.16;100.00
56052;BME280;41919;42.648;23.384;2023-06-14T13:49:59;94262.84;;;19.25;100.00
56052;BME280;41919;42.648;23.384;2023-06-14T13:52:25;94272.38;;;19.26;100.00
56052;BME280;41919;42.648;23.384;2023-06-14T13:54:51;94271.59;;;19.20;100.00
56052;BME280;41919;42.648;23.384;2023-06-14T13:57:16;94254.91;;;19.05;100.00
56052;BME280;41919;42.648;23.384;2023-06-14T13:59:42;94267.34;;;18.99;100.00
56052;BME280;41919;42.648;23.384;2023-06-14T14:02:10;94222.00;;;18.75;100.00
56052;BME280;41919;42.648;23.384;2023-06-14T14:04:36;94251.41;;;18.89;100.00
56052;BME280;41919;42.648;23.384;2023-06-14T14:07:02;94272.63;;;18.94;100.00
56052;BME280;41919;42.648;23.384;2023-06-14T14:09:28;94294.38;;;19.16;100.00
56052;BME280;41919;42.648;23.384;2023-06-14T14:11:53;94292.50;;;19.17;100.00
56052;BME280;41919;42.648;23.384;2023-06-14T14:14:19;94230.00;;;18.85;100.00
56052;BME280;41919;42.648;23.384;2023-06-14T14:16:44;94294.38;;;19.27;100.00
56052;BME280;41919;42.648;23.384;2023-06-14T14:19:10;94317.44;;;19.42;100.00
56052;BME280;41919;42.648;23.384;2023-06-14T14:21:36;94293.06;;;19.39;100.00